sensor_id;sensor_type;location;lat;lon;timestamp;P1;durP1;ratioP1;P2;durP2;ratioP2
21886;SDS011;11108;49.988;8.182;2022-10-16T00:01:18;0.50;;;0.50;;
21886;SDS011;11108;49.988;8.182;2022-10-16T00:03:44;0.60;;;0.60;;
21886;SDS011;11108;49.988;8.182;2022-10-16T00:06:09;1.30;;;0.60;;
21886;SDS011;11108;49.988;8.182;2022-10-16T00:08:35;0.47;;;0.47;;
21886;SDS011;11108;49.988;8.182;2022-10-16T00:11:02;0.60;;;0.60;;
21886;SDS011;11108;49.988;8.182;2022-10-16T00:13:27;0.70;;;0.70;;
21886;SDS011;11108;49.988;8.182;2022-10-16T00:15:54;0.60;;;0.60;;
21886;SDS011;11108;49.988;8.182;2022-10-16T00:18:20;0.57;;;0.57;;
21886;SDS011;11108;49.988;8.182;2022-10-16T00:20:45;0.50;;;0.50;;
21886;SDS011;11108;49.988;8.182;2022-10-16T00:23:10;0.77;;;0.77;;
21886;SDS011;11108;49.988;8.182;2022-10-16T00:25:35;0.53;;;0.53;;
21886;SDS011;11108;49.988;8.182;2022-10-16T00:28:01;0.50;;;0.50;;
21886;SDS011;11108;49.988;8.182;2022-10-16T00:30:26;0.60;;;0.60;;
21886;SDS011;11108;49.988;8.182;2022-10-16T00:32:52;0.70;;;0.70;;
21886;SDS011;11108;49.988;8.182;2022-10-16T00:35:18;0.60;;;0.60;;
21886;SDS011;11108;49.988;8.182;2022-10-16T00:37:43;0.67;;;0.50;;
21886;SDS011;11108;49.988;8.182;2022-10-16T00:40:08;0.87;;;0.60;;
21886;SDS011;11108;49.988;8.182;2022-10-16T00:42:34;1.07;;;0.50;;
21886;SDS011;11108;49.988;8.182;2022-10-16T00:44:59;1.33;;;0.80;;
21886;SDS011;11108;49.988;8.182;2022-10-16T00:47:27;0.50;;;0.50;;
21886;SDS011;11108;49.988;8.182;2022-10-16T00:50:16;2.20;;;0.53;;
21886;SDS011;11108;49.988;8.182;2022-10-16T00:52:40;0.50;;;0.50;;
21886;SDS011;11108;49.988;8.182;2022-10-16T00:55:07;0.63;;;0.60;;
21886;SDS011;11108;49.988;8.182;2022-10-16T00:57:34;1.00;;;0.50;;
21886;SDS011;11108;49.988;8.182;2022-10-16T00:59:59;0.50;;;0.50;;
21886;SDS011;11108;49.988;8.182;2022-10-16T01:02:24;0.50;;;0.50;;
21886;SDS011;11108;49.988;8.182;2022-10-16T01:04:50;0.40;;;0.40;;
21886;SDS011;11108;49.988;8.182;2022-10-16T01:15:05;0.50;;;0.50;;
21886;SDS011;11108;49.988;8.182;2022-10-16T01:17:35;0.77;;;0.73;;
21886;SDS011;11108;49.988;8.182;2022-10-16T01:20:05;0.50;;;0.50;;
21886;SDS011;11108;49.988;8.182;2022-10-16T01:25:16;0.97;;;0.43;;
21886;SDS011;11108;49.988;8.182;2022-10-16T01:27:43;0.60;;;0.60;;
21886;SDS011;11108;49.988;8.182;2022-10-16T01:30:12;0.60;;;0.60;;
21886;SDS011;11108;49.988;8.182;2022-10-16T01:32:43;0.70;;;0.70;;
21886;SDS011;11108;49.988;8.182;2022-10-16T01:35:10;0.50;;;0.50;;
21886;SDS011;11108;49.988;8.182;2022-10-16T01:37:40;0.40;;;0.40;;
21886;SDS011;11108;49.988;8.182;2022-10-16T01:40:11;1.40;;;0.80;;
21886;SDS011;11108;49.988;8.182;2022-10-16T01:42:39;0.60;;;0.60;;
21886;SDS011;11108;49.988;8.182;2022-10-16T01:45:06;2.30;;;0.73;;
21886;SDS011;11108;49.988;8.182;2022-10-16T01:47:32;1.60;;;0.60;;
21886;SDS011;11108;49.988;8.182;2022-10-16T01:49:59;0.93;;;0.93;;
21886;SDS011;11108;49.988;8.182;2022-10-16T01:52:26;0.50;;;0.50;;
21886;SDS011;11108;49.988;8.182;2022-10-16T01:54:53;0.57;;;0.57;;
21886;SDS011;11108;49.988;8.182;2022-10-16T01:57:20;0.60;;;0.50;;
21886;SDS011;11108;49.988;8.182;2022-10-16T01:59:48;0.53;;;0.53;;
21886;SDS011;11108;49.988;8.182;2022-10-16T02:02:15;0.77;;;0.60;;
21886;SDS011;11108;49.988;8.182;2022-10-16T02:04:43;0.40;;;0.40;;
21886;SDS011;11108;49.988;8.182;2022-10-16T02:07:08;0.60;;;0.60;;
21886;SDS011;11108;49.988;8.182;2022-10-16T02:09:34;0.60;;;0.60;;
21886;SDS011;11108;49.988;8.182;2022-10-16T02:12:01;0.50;;;0.50;;
21886;SDS011;11108;49.988;8.182;2022-10-16T02:14:29;0.50;;;0.50;;
21886;SDS011;11108;49.988;8.182;2022-10-16T02:16:55;0.50;;;0.50;;
21886;SDS011;11108;49.988;8.182;2022-10-16T02:19:20;0.43;;;0.43;;
21886;SDS011;11108;49.988;8.182;2022-10-16T02:21:48;0.53;;;0.50;;
21886;SDS011;11108;49.988;8.182;2022-10-16T02:26:43;0.60;;;0.60;;
21886;SDS011;11108;49.988;8.182;2022-10-16T02:29:11;0.60;;;0.60;;
21886;SDS011;11108;49.988;8.182;2022-10-16T02:31:38;0.50;;;0.50;;
21886;SDS011;11108;49.988;8.182;2022-10-16T02:34:05;0.63;;;0.63;;
21886;SDS011;11108;49.988;8.182;2022-10-16T02:36:32;0.70;;;0.70;;
21886;SDS011;11108;49.988;8.182;2022-10-16T02:38:58;0.50;;;0.50;;
21886;SDS011;11108;49.988;8.182;2022-10-16T02:41:25;0.50;;;0.50;;
21886;SDS011;11108;49.988;8.182;2022-10-16T02:43:50;0.40;;;0.40;;
21886;SDS011;11108;49.988;8.182;2022-10-16T02:46:16;0.50;;;0.50;;
21886;SDS011;11108;49.988;8.182;2022-10-16T02:48:41;0.67;;;0.60;;
21886;SDS011;11108;49.988;8.182;2022-10-16T02:51:07;0.53;;;0.53;;
21886;SDS011;11108;49.988;8.182;2022-10-16T02:53:32;0.40;;;0.40;;
21886;SDS011;11108;49.988;8.182;2022-10-16T02:55:57;0.57;;;0.57;;
21886;SDS011;11108;49.988;8.182;2022-10-16T02:58:22;0.50;;;0.50;;
21886;SDS011;11108;49.988;8.182;2022-10-16T03:00:47;0.50;;;0.50;;
21886;SDS011;11108;49.988;8.182;2022-10-16T03:03:13;0.50;;;0.50;;
21886;SDS011;11108;49.988;8.182;2022-10-16T03:05:38;0.70;;;0.70;;
21886;SDS011;11108;49.988;8.182;2022-10-16T03:08:03;0.60;;;0.60;;
21886;SDS011;11108;49.988;8.182;2022-10-16T03:10:28;0.80;;;0.80;;
21886;SDS011;11108;49.988;8.182;2022-10-16T03:12:54;0.63;;;0.63;;
21886;SDS011;11108;49.988;8.182;2022-10-16T03:15:19;0.47;;;0.47;;
21886;SDS011;11108;49.988;8.182;2022-10-16T03:17:44;0.60;;;0.60;;
21886;SDS011;11108;49.988;8.182;2022-10-16T03:20:09;0.70;;;0.70;;
21886;SDS011;11108;49.988;8.182;2022-10-16T03:22:35;0.70;;;0.70;;
21886;SDS011;11108;49.988;8.182;2022-10-16T03:25:00;0.70;;;0.70;;
21886;SDS011;11108;49.988;8.182;2022-10-16T03:27:25;0.50;;;0.50;;
21886;SDS011;11108;49.988;8.182;2022-10-16T03:29:50;0.47;;;0.47;;
21886;SDS011;11108;49.988;8.182;2022-10-16T03:32:15;0.43;;;0.43;;
21886;SDS011;11108;49.988;8.182;2022-10-16T03:34:41;0.47;;;0.47;;
21886;SDS011;11108;49.988;8.182;2022-10-16T03:37:06;0.60;;;0.60;;
21886;SDS011;11108;49.988;8.182;2022-10-16T03:39:31;0.60;;;0.60;;
21886;SDS011;11108;49.988;8.182;2022-10-16T03:41:56;0.50;;;0.50;;
21886;SDS011;11108;49.988;8.182;2022-10-16T03:44:22;0.50;;;0.50;;
21886;SDS011;11108;49.988;8.182;2022-10-16T03:46:47;0.40;;;0.40;;
21886;SDS011;11108;49.988;8.182;2022-10-16T03:49:12;0.90;;;0.90;;
21886;SDS011;11108;49.988;8.182;2022-10-16T03:51:37;0.50;;;0.50;;
21886;SDS011;11108;49.988;8.182;2022-10-16T03:54:02;0.50;;;0.50;;
21886;SDS011;11108;49.988;8.182;2022-10-16T03:56:28;0.50;;;0.50;;
21886;SDS011;11108;49.988;8.182;2022-10-16T03:58:53;0.60;;;0.60;;
21886;SDS011;11108;49.988;8.182;2022-10-16T04:01:18;0.40;;;0.40;;
21886;SDS011;11108;49.988;8.182;2022-10-16T04:03:43;0.70;;;0.70;;
21886;SDS011;11108;49.988;8.182;2022-10-16T04:06:08;0.50;;;0.50;;
21886;SDS011;11108;49.988;8.182;2022-10-16T04:08:34;0.57;;;0.57;;
21886;SDS011;11108;49.988;8.182;2022-10-16T04:11:01;0.60;;;0.60;;
21886;SDS011;11108;49.988;8.182;2022-10-16T04:13:27;1.07;;;0.50;;
21886;SDS011;11108;49.988;8.182;2022-10-16T04:15:52;0.60;;;0.60;;
21886;SDS011;11108;49.988;8.182;2022-10-16T04:18:17;0.50;;;0.50;;
21886;SDS011;11108;49.988;8.182;2022-10-16T04:20:42;0.50;;;0.50;;
21886;SDS011;11108;49.988;8.182;2022-10-16T04:23:07;0.60;;;0.60;;
21886;SDS011;11108;49.988;8.182;2022-10-16T04:25:32;0.70;;;0.70;;
21886;SDS011;11108;49.988;8.182;2022-10-16T04:27:58;0.57;;;0.57;;
21886;SDS011;11108;49.988;8.182;2022-10-16T04:30:23;0.73;;;0.73;;
21886;SDS011;11108;49.988;8.182;2022-10-16T04:32:49;0.60;;;0.60;;
21886;SDS011;11108;49.988;8.182;2022-10-16T04:35:15;0.50;;;0.50;;
21886;SDS011;11108;49.988;8.182;2022-10-16T04:37:40;0.63;;;0.63;;
21886;SDS011;11108;49.988;8.182;2022-10-16T04:40:05;0.50;;;0.50;;
21886;SDS011;11108;49.988;8.182;2022-10-16T04:42:30;0.50;;;0.50;;
21886;SDS011;11108;49.988;8.182;2022-10-16T04:44:56;0.50;;;0.50;;
21886;SDS011;11108;49.988;8.182;2022-10-16T04:47:21;0.50;;;0.50;;
21886;SDS011;11108;49.988;8.182;2022-10-16T04:49:46;0.43;;;0.43;;
21886;SDS011;11108;49.988;8.182;2022-10-16T04:52:11;0.60;;;0.60;;
21886;SDS011;11108;49.988;8.182;2022-10-16T04:54:36;0.60;;;0.60;;
21886;SDS011;11108;49.988;8.182;2022-10-16T04:57:02;0.60;;;0.60;;
21886;SDS011;11108;49.988;8.182;2022-10-16T04:59:27;0.50;;;0.50;;
21886;SDS011;11108;49.988;8.182;2022-10-16T05:01:52;0.67;;;0.67;;
21886;SDS011;11108;49.988;8.182;2022-10-16T05:04:17;0.50;;;0.50;;
21886;SDS011;11108;49.988;8.182;2022-10-16T05:06:43;0.40;;;0.40;;
21886;SDS011;11108;49.988;8.182;2022-10-16T05:09:08;0.60;;;0.60;;
21886;SDS011;11108;49.988;8.182;2022-10-16T05:11:33;0.47;;;0.47;;
21886;SDS011;11108;49.988;8.182;2022-10-16T05:13:59;0.60;;;0.60;;
21886;SDS011;11108;49.988;8.182;2022-10-16T05:16:24;0.40;;;0.40;;
21886;SDS011;11108;49.988;8.182;2022-10-16T05:18:50;0.60;;;0.60;;
21886;SDS011;11108;49.988;8.182;2022-10-16T05:21:16;0.40;;;0.40;;
21886;SDS011;11108;49.988;8.182;2022-10-16T05:23:41;0.50;;;0.50;;
21886;SDS011;11108;49.988;8.182;2022-10-16T05:26:06;0.50;;;0.50;;
21886;SDS011;11108;49.988;8.182;2022-10-16T05:28:31;0.50;;;0.50;;
21886;SDS011;11108;49.988;8.182;2022-10-16T05:30:57;0.40;;;0.40;;
21886;SDS011;11108;49.988;8.182;2022-10-16T05:33:23;0.70;;;0.70;;
21886;SDS011;11108;49.988;8.182;2022-10-16T05:35:49;0.60;;;0.60;;
21886;SDS011;11108;49.988;8.182;2022-10-16T05:38:14;0.47;;;0.47;;
21886;SDS011;11108;49.988;8.182;2022-10-16T05:40:40;0.67;;;0.67;;
21886;SDS011;11108;49.988;8.182;2022-10-16T05:43:05;0.60;;;0.60;;
21886;SDS011;11108;49.988;8.182;2022-10-16T05:45:30;1.23;;;0.67;;
21886;SDS011;11108;49.988;8.182;2022-10-16T05:47:55;0.57;;;0.50;;
21886;SDS011;11108;49.988;8.182;2022-10-16T05:50:20;0.63;;;0.63;;
21886;SDS011;11108;49.988;8.182;2022-10-16T05:52:46;0.60;;;0.60;;
21886;SDS011;11108;49.988;8.182;2022-10-16T05:55:11;0.53;;;0.53;;
21886;SDS011;11108;49.988;8.182;2022-10-16T05:57:36;0.30;;;0.30;;
21886;SDS011;11108;49.988;8.182;2022-10-16T06:00:02;0.50;;;0.50;;
21886;SDS011;11108;49.988;8.182;2022-10-16T06:02:27;0.57;;;0.57;;
21886;SDS011;11108;49.988;8.182;2022-10-16T06:04:52;0.50;;;0.50;;
21886;SDS011;11108;49.988;8.182;2022-10-16T06:07:21;0.40;;;0.40;;
21886;SDS011;11108;49.988;8.182;2022-10-16T06:09:52;0.50;;;0.50;;
21886;SDS011;11108;49.988;8.182;2022-10-16T06:12:18;0.57;;;0.50;;
21886;SDS011;11108;49.988;8.182;2022-10-16T06:14:44;0.50;;;0.50;;
21886;SDS011;11108;49.988;8.182;2022-10-16T06:17:09;0.60;;;0.60;;
21886;SDS011;11108;49.988;8.182;2022-10-16T06:19:34;0.50;;;0.50;;
21886;SDS011;11108;49.988;8.182;2022-10-16T06:21:59;0.70;;;0.70;;
21886;SDS011;11108;49.988;8.182;2022-10-16T06:24:25;0.70;;;0.70;;
21886;SDS011;11108;49.988;8.182;2022-10-16T06:26:50;0.50;;;0.50;;
21886;SDS011;11108;49.988;8.182;2022-10-16T06:29:15;0.50;;;0.50;;
21886;SDS011;11108;49.988;8.182;2022-10-16T06:31:41;0.70;;;0.70;;
21886;SDS011;11108;49.988;8.182;2022-10-16T06:34:08;0.57;;;0.57;;
21886;SDS011;11108;49.988;8.182;2022-10-16T06:36:35;0.63;;;0.63;;
21886;SDS011;11108;49.988;8.182;2022-10-16T06:39:00;0.47;;;0.47;;
21886;SDS011;11108;49.988;8.182;2022-10-16T06:41:26;0.50;;;0.50;;
21886;SDS011;11108;49.988;8.182;2022-10-16T06:43:51;0.80;;;0.80;;
21886;SDS011;11108;49.988;8.182;2022-10-16T06:46:18;1.60;;;0.77;;
21886;SDS011;11108;49.988;8.182;2022-10-16T06:48:44;0.60;;;0.60;;
21886;SDS011;11108;49.988;8.182;2022-10-16T06:51:10;0.93;;;0.90;;
21886;SDS011;11108;49.988;8.182;2022-10-16T06:53:36;1.43;;;0.70;;
21886;SDS011;11108;49.988;8.182;2022-10-16T06:56:08;1.50;;;0.70;;
21886;SDS011;11108;49.988;8.182;2022-10-16T06:58:34;0.60;;;0.60;;
21886;SDS011;11108;49.988;8.182;2022-10-16T07:00:59;0.67;;;0.67;;
21886;SDS011;11108;49.988;8.182;2022-10-16T07:03:24;0.67;;;0.60;;
21886;SDS011;11108;49.988;8.182;2022-10-16T07:05:49;0.83;;;0.70;;
21886;SDS011;11108;49.988;8.182;2022-10-16T07:08:15;0.87;;;0.87;;
21886;SDS011;11108;49.988;8.182;2022-10-16T07:10:40;0.80;;;0.80;;
21886;SDS011;11108;49.988;8.182;2022-10-16T07:13:05;0.60;;;0.60;;
21886;SDS011;11108;49.988;8.182;2022-10-16T07:15:32;0.63;;;0.63;;
21886;SDS011;11108;49.988;8.182;2022-10-16T07:17:57;0.60;;;0.60;;
21886;SDS011;11108;49.988;8.182;2022-10-16T07:20:23;0.87;;;0.67;;
21886;SDS011;11108;49.988;8.182;2022-10-16T07:22:48;0.70;;;0.70;;
21886;SDS011;11108;49.988;8.182;2022-10-16T07:25:13;0.57;;;0.57;;
21886;SDS011;11108;49.988;8.182;2022-10-16T07:27:38;0.63;;;0.63;;
21886;SDS011;11108;49.988;8.182;2022-10-16T07:30:04;0.60;;;0.60;;
21886;SDS011;11108;49.988;8.182;2022-10-16T07:32:29;1.07;;;0.60;;
21886;SDS011;11108;49.988;8.182;2022-10-16T07:34:54;0.90;;;0.77;;
21886;SDS011;11108;49.988;8.182;2022-10-16T07:37:20;3.60;;;0.90;;
21886;SDS011;11108;49.988;8.182;2022-10-16T07:39:45;0.60;;;0.60;;
21886;SDS011;11108;49.988;8.182;2022-10-16T07:42:11;1.17;;;0.97;;
21886;SDS011;11108;49.988;8.182;2022-10-16T07:44:36;1.53;;;0.80;;
21886;SDS011;11108;49.988;8.182;2022-10-16T07:47:01;0.60;;;0.60;;
21886;SDS011;11108;49.988;8.182;2022-10-16T07:49:26;1.10;;;1.00;;
21886;SDS011;11108;49.988;8.182;2022-10-16T07:51:52;2.10;;;0.90;;
21886;SDS011;11108;49.988;8.182;2022-10-16T07:54:17;0.80;;;0.80;;
21886;SDS011;11108;49.988;8.182;2022-10-16T07:56:42;1.20;;;0.57;;
21886;SDS011;11108;49.988;8.182;2022-10-16T07:59:07;1.07;;;0.70;;
21886;SDS011;11108;49.988;8.182;2022-10-16T08:01:32;0.83;;;0.60;;
21886;SDS011;11108;49.988;8.182;2022-10-16T08:03:57;4.90;;;2.10;;
21886;SDS011;11108;49.988;8.182;2022-10-16T08:06:23;23.03;;;11.97;;
21886;SDS011;11108;49.988;8.182;2022-10-16T08:08:48;29.27;;;17.53;;
21886;SDS011;11108;49.988;8.182;2022-10-16T08:11:14;27.90;;;14.60;;
21886;SDS011;11108;49.988;8.182;2022-10-16T08:13:39;21.47;;;11.27;;
21886;SDS011;11108;49.988;8.182;2022-10-16T08:16:05;18.50;;;9.77;;
21886;SDS011;11108;49.988;8.182;2022-10-16T08:18:33;11.77;;;7.00;;
21886;SDS011;11108;49.988;8.182;2022-10-16T08:20:58;12.40;;;6.13;;
21886;SDS011;11108;49.988;8.182;2022-10-16T08:23:25;11.00;;;5.27;;
21886;SDS011;11108;49.988;8.182;2022-10-16T08:25:51;11.63;;;4.27;;
21886;SDS011;11108;49.988;8.182;2022-10-16T08:28:16;7.13;;;4.13;;
21886;SDS011;11108;49.988;8.182;2022-10-16T08:30:41;8.47;;;3.90;;
21886;SDS011;11108;49.988;8.182;2022-10-16T08:33:07;9.67;;;3.47;;
21886;SDS011;11108;49.988;8.182;2022-10-16T08:35:32;8.47;;;3.33;;
21886;SDS011;11108;49.988;8.182;2022-10-16T08:37:57;11.67;;;2.80;;
21886;SDS011;11108;49.988;8.182;2022-10-16T08:40:24;9.53;;;3.10;;
21886;SDS011;11108;49.988;8.182;2022-10-16T08:45:34;6.37;;;2.67;;
21886;SDS011;11108;49.988;8.182;2022-10-16T08:50:49;9.67;;;3.20;;
21886;SDS011;11108;49.988;8.182;2022-10-16T08:53:39;6.53;;;2.60;;
21886;SDS011;11108;49.988;8.182;2022-10-16T08:56:01;8.50;;;2.60;;
21886;SDS011;11108;49.988;8.182;2022-10-16T08:58:27;5.93;;;2.47;;
21886;SDS011;11108;49.988;8.182;2022-10-16T09:00:54;5.27;;;2.87;;
21886;SDS011;11108;49.988;8.182;2022-10-16T09:11:03;7.47;;;3.10;;
21886;SDS011;11108;49.988;8.182;2022-10-16T09:13:43;4.93;;;2.10;;
21886;SDS011;11108;49.988;8.182;2022-10-16T09:16:30;3.53;;;1.90;;
21886;SDS011;11108;49.988;8.182;2022-10-16T09:21:40;3.93;;;1.93;;
21886;SDS011;11108;49.988;8.182;2022-10-16T09:24:16;6.20;;;2.03;;
21886;SDS011;11108;49.988;8.182;2022-10-16T09:26:42;8.47;;;2.47;;
21886;SDS011;11108;49.988;8.182;2022-10-16T09:29:08;4.33;;;2.20;;
21886;SDS011;11108;49.988;8.182;2022-10-16T09:31:35;4.50;;;2.33;;
21886;SDS011;11108;49.988;8.182;2022-10-16T09:34:02;4.50;;;1.93;;
21886;SDS011;11108;49.988;8.182;2022-10-16T09:36:34;2.40;;;1.60;;
21886;SDS011;11108;49.988;8.182;2022-10-16T09:39:07;5.47;;;1.73;;
21886;SDS011;11108;49.988;8.182;2022-10-16T09:41:34;4.30;;;2.20;;
21886;SDS011;11108;49.988;8.182;2022-10-16T09:44:00;4.10;;;1.57;;
21886;SDS011;11108;49.988;8.182;2022-10-16T09:48:53;2.73;;;1.73;;
21886;SDS011;11108;49.988;8.182;2022-10-16T09:53:47;2.47;;;1.90;;
21886;SDS011;11108;49.988;8.182;2022-10-16T09:56:20;2.23;;;1.60;;
21886;SDS011;11108;49.988;8.182;2022-10-16T09:58:50;1.90;;;1.30;;
21886;SDS011;11108;49.988;8.182;2022-10-16T10:01:16;3.57;;;2.10;;
21886;SDS011;11108;49.988;8.182;2022-10-16T10:03:42;2.27;;;1.30;;
21886;SDS011;11108;49.988;8.182;2022-10-16T10:08:58;1.20;;;1.13;;
21886;SDS011;11108;49.988;8.182;2022-10-16T10:11:44;2.90;;;1.50;;
21886;SDS011;11108;49.988;8.182;2022-10-16T10:14:23;2.30;;;1.30;;
21886;SDS011;11108;49.988;8.182;2022-10-16T10:16:49;1.53;;;1.43;;
21886;SDS011;11108;49.988;8.182;2022-10-16T10:19:18;2.13;;;1.20;;
21886;SDS011;11108;49.988;8.182;2022-10-16T10:21:44;2.97;;;1.33;;
21886;SDS011;11108;49.988;8.182;2022-10-16T10:24:10;1.33;;;1.23;;
21886;SDS011;11108;49.988;8.182;2022-10-16T10:26:36;1.70;;;1.20;;
21886;SDS011;11108;49.988;8.182;2022-10-16T10:31:42;3.47;;;1.10;;
21886;SDS011;11108;49.988;8.182;2022-10-16T10:34:32;2.03;;;1.30;;
21886;SDS011;11108;49.988;8.182;2022-10-16T10:37:01;2.73;;;1.27;;
21886;SDS011;11108;49.988;8.182;2022-10-16T10:39:40;1.43;;;1.10;;
21886;SDS011;11108;49.988;8.182;2022-10-16T10:52:34;1.83;;;1.00;;
21886;SDS011;11108;49.988;8.182;2022-10-16T10:58:06;1.00;;;0.80;;
21886;SDS011;11108;49.988;8.182;2022-10-16T11:05:58;3.43;;;1.20;;
21886;SDS011;11108;49.988;8.182;2022-10-16T11:08:32;3.13;;;1.20;;
21886;SDS011;11108;49.988;8.182;2022-10-16T11:11:04;2.83;;;1.10;;
21886;SDS011;11108;49.988;8.182;2022-10-16T11:15:58;2.63;;;1.17;;
21886;SDS011;11108;49.988;8.182;2022-10-16T11:18:25;1.37;;;1.23;;
21886;SDS011;11108;49.988;8.182;2022-10-16T11:20:53;1.13;;;1.03;;
21886;SDS011;11108;49.988;8.182;2022-10-16T11:23:30;5.63;;;1.20;;
21886;SDS011;11108;49.988;8.182;2022-10-16T11:25:58;2.47;;;1.00;;
21886;SDS011;11108;49.988;8.182;2022-10-16T11:28:27;1.97;;;1.00;;
21886;SDS011;11108;49.988;8.182;2022-10-16T11:30:55;1.60;;;1.27;;
21886;SDS011;11108;49.988;8.182;2022-10-16T11:36:02;2.13;;;0.80;;
21886;SDS011;11108;49.988;8.182;2022-10-16T11:38:36;2.20;;;1.10;;
21886;SDS011;11108;49.988;8.182;2022-10-16T11:41:27;0.70;;;0.70;;
21886;SDS011;11108;49.988;8.182;2022-10-16T11:44:36;1.30;;;1.10;;
21886;SDS011;11108;49.988;8.182;2022-10-16T11:46:35;0.70;;;0.70;;
21886;SDS011;11108;49.988;8.182;2022-10-16T11:52:03;1.10;;;0.97;;
21886;SDS011;11108;49.988;8.182;2022-10-16T11:54:33;2.63;;;0.97;;
21886;SDS011;11108;49.988;8.182;2022-10-16T11:57:02;0.97;;;0.87;;
21886;SDS011;11108;49.988;8.182;2022-10-16T11:59:30;0.87;;;0.87;;
21886;SDS011;11108;49.988;8.182;2022-10-16T12:01:58;2.70;;;0.87;;
21886;SDS011;11108;49.988;8.182;2022-10-16T12:07:22;1.03;;;0.90;;
21886;SDS011;11108;49.988;8.182;2022-10-16T12:09:49;0.80;;;0.80;;
21886;SDS011;11108;49.988;8.182;2022-10-16T12:12:28;1.40;;;0.70;;
21886;SDS011;11108;49.988;8.182;2022-10-16T12:17:45;0.90;;;0.87;;
21886;SDS011;11108;49.988;8.182;2022-10-16T12:22:36;1.53;;;1.43;;
21886;SDS011;11108;49.988;8.182;2022-10-16T12:25:01;1.10;;;0.77;;
21886;SDS011;11108;49.988;8.182;2022-10-16T12:27:30;1.00;;;0.80;;
21886;SDS011;11108;49.988;8.182;2022-10-16T12:29:59;2.00;;;0.87;;
21886;SDS011;11108;49.988;8.182;2022-10-16T12:32:32;2.07;;;0.90;;
21886;SDS011;11108;49.988;8.182;2022-10-16T12:34:59;1.00;;;0.90;;
21886;SDS011;11108;49.988;8.182;2022-10-16T12:37:26;0.70;;;0.70;;
21886;SDS011;11108;49.988;8.182;2022-10-16T12:39:52;1.83;;;0.70;;
21886;SDS011;11108;49.988;8.182;2022-10-16T12:42:22;1.10;;;0.70;;
21886;SDS011;11108;49.988;8.182;2022-10-16T12:44:48;1.07;;;0.70;;
21886;SDS011;11108;49.988;8.182;2022-10-16T12:47:20;1.20;;;1.10;;
21886;SDS011;11108;49.988;8.182;2022-10-16T12:49:51;1.23;;;0.90;;
21886;SDS011;11108;49.988;8.182;2022-10-16T12:52:24;0.93;;;0.90;;
21886;SDS011;11108;49.988;8.182;2022-10-16T12:54:50;0.97;;;0.97;;
21886;SDS011;11108;49.988;8.182;2022-10-16T13:10:14;1.03;;;0.90;;
21886;SDS011;11108;49.988;8.182;2022-10-16T13:15:16;1.47;;;0.83;;
21886;SDS011;11108;49.988;8.182;2022-10-16T13:20:31;1.10;;;1.00;;
21886;SDS011;11108;49.988;8.182;2022-10-16T13:23:19;0.90;;;0.90;;
21886;SDS011;11108;49.988;8.182;2022-10-16T13:28:34;0.70;;;0.70;;
21886;SDS011;11108;49.988;8.182;2022-10-16T13:31:00;1.80;;;1.00;;
21886;SDS011;11108;49.988;8.182;2022-10-16T13:33:41;0.77;;;0.77;;
21886;SDS011;11108;49.988;8.182;2022-10-16T13:38:45;1.60;;;1.10;;
21886;SDS011;11108;49.988;8.182;2022-10-16T13:41:15;0.70;;;0.70;;
21886;SDS011;11108;49.988;8.182;2022-10-16T13:43:47;0.90;;;0.90;;
21886;SDS011;11108;49.988;8.182;2022-10-16T13:46:17;0.73;;;0.73;;
21886;SDS011;11108;49.988;8.182;2022-10-16T13:48:43;1.00;;;0.90;;
21886;SDS011;11108;49.988;8.182;2022-10-16T13:51:13;0.60;;;0.60;;
21886;SDS011;11108;49.988;8.182;2022-10-16T13:53:38;0.97;;;0.90;;
21886;SDS011;11108;49.988;8.182;2022-10-16T13:56:05;0.70;;;0.70;;
21886;SDS011;11108;49.988;8.182;2022-10-16T13:58:30;1.37;;;0.80;;
21886;SDS011;11108;49.988;8.182;2022-10-16T14:01:06;0.87;;;0.87;;
21886;SDS011;11108;49.988;8.182;2022-10-16T14:03:40;0.70;;;0.70;;
21886;SDS011;11108;49.988;8.182;2022-10-16T14:06:06;0.80;;;0.80;;
21886;SDS011;11108;49.988;8.182;2022-10-16T14:08:36;0.77;;;0.70;;
21886;SDS011;11108;49.988;8.182;2022-10-16T14:11:02;1.63;;;0.80;;
21886;SDS011;11108;49.988;8.182;2022-10-16T14:13:37;1.70;;;1.13;;
21886;SDS011;11108;49.988;8.182;2022-10-16T14:16:05;1.93;;;0.70;;
21886;SDS011;11108;49.988;8.182;2022-10-16T14:18:31;1.83;;;0.80;;
21886;SDS011;11108;49.988;8.182;2022-10-16T14:21:02;0.90;;;0.90;;
21886;SDS011;11108;49.988;8.182;2022-10-16T14:23:28;1.87;;;0.80;;
21886;SDS011;11108;49.988;8.182;2022-10-16T14:26:05;2.07;;;1.03;;
21886;SDS011;11108;49.988;8.182;2022-10-16T14:28:30;2.30;;;1.00;;
21886;SDS011;11108;49.988;8.182;2022-10-16T14:30:56;1.27;;;0.80;;
21886;SDS011;11108;49.988;8.182;2022-10-16T14:35:59;2.57;;;0.93;;
21886;SDS011;11108;49.988;8.182;2022-10-16T14:38:25;1.03;;;1.03;;
21886;SDS011;11108;49.988;8.182;2022-10-16T14:40:50;2.00;;;1.00;;
21886;SDS011;11108;49.988;8.182;2022-10-16T14:43:22;0.93;;;0.90;;
21886;SDS011;11108;49.988;8.182;2022-10-16T14:45:51;2.67;;;1.10;;
21886;SDS011;11108;49.988;8.182;2022-10-16T14:48:17;1.10;;;1.10;;
21886;SDS011;11108;49.988;8.182;2022-10-16T14:50:44;1.40;;;1.10;;
21886;SDS011;11108;49.988;8.182;2022-10-16T14:53:11;3.03;;;1.17;;
21886;SDS011;11108;49.988;8.182;2022-10-16T14:55:37;3.80;;;1.03;;
21886;SDS011;11108;49.988;8.182;2022-10-16T14:58:02;1.47;;;0.97;;
21886;SDS011;11108;49.988;8.182;2022-10-16T15:00:27;3.40;;;1.17;;
21886;SDS011;11108;49.988;8.182;2022-10-16T15:02:53;2.70;;;0.97;;
21886;SDS011;11108;49.988;8.182;2022-10-16T15:05:24;3.30;;;1.03;;
21886;SDS011;11108;49.988;8.182;2022-10-16T15:07:51;3.73;;;1.47;;
21886;SDS011;11108;49.988;8.182;2022-10-16T15:10:18;1.53;;;1.10;;
21886;SDS011;11108;49.988;8.182;2022-10-16T15:12:44;2.50;;;1.73;;
21886;SDS011;11108;49.988;8.182;2022-10-16T15:17:37;2.00;;;1.00;;
21886;SDS011;11108;49.988;8.182;2022-10-16T15:20:03;1.70;;;1.17;;
21886;SDS011;11108;49.988;8.182;2022-10-16T15:22:28;2.03;;;1.10;;
21886;SDS011;11108;49.988;8.182;2022-10-16T15:24:53;2.30;;;1.33;;
21886;SDS011;11108;49.988;8.182;2022-10-16T15:27:18;1.63;;;1.20;;
21886;SDS011;11108;49.988;8.182;2022-10-16T15:29:43;1.00;;;1.00;;
21886;SDS011;11108;49.988;8.182;2022-10-16T15:32:10;1.10;;;1.00;;
21886;SDS011;11108;49.988;8.182;2022-10-16T15:34:35;2.83;;;1.27;;
21886;SDS011;11108;49.988;8.182;2022-10-16T15:37:02;2.37;;;1.60;;
21886;SDS011;11108;49.988;8.182;2022-10-16T15:39:27;1.30;;;1.20;;
21886;SDS011;11108;49.988;8.182;2022-10-16T15:41:52;3.33;;;1.40;;
21886;SDS011;11108;49.988;8.182;2022-10-16T15:44:18;1.40;;;1.30;;
21886;SDS011;11108;49.988;8.182;2022-10-16T15:46:43;1.50;;;1.03;;
21886;SDS011;11108;49.988;8.182;2022-10-16T15:49:08;1.20;;;1.10;;
21886;SDS011;11108;49.988;8.182;2022-10-16T15:51:34;2.00;;;1.00;;
21886;SDS011;11108;49.988;8.182;2022-10-16T15:54:02;1.67;;;1.13;;
21886;SDS011;11108;49.988;8.182;2022-10-16T15:56:27;1.60;;;1.50;;
21886;SDS011;11108;49.988;8.182;2022-10-16T15:58:53;3.17;;;1.60;;
21886;SDS011;11108;49.988;8.182;2022-10-16T16:01:19;2.67;;;1.23;;
21886;SDS011;11108;49.988;8.182;2022-10-16T16:03:44;3.00;;;1.23;;
21886;SDS011;11108;49.988;8.182;2022-10-16T16:06:10;2.70;;;1.10;;
21886;SDS011;11108;49.988;8.182;2022-10-16T16:08:36;1.30;;;1.20;;
21886;SDS011;11108;49.988;8.182;2022-10-16T16:11:11;1.10;;;1.10;;
21886;SDS011;11108;49.988;8.182;2022-10-16T16:13:36;1.60;;;1.00;;
21886;SDS011;11108;49.988;8.182;2022-10-16T16:16:13;2.87;;;1.10;;
21886;SDS011;11108;49.988;8.182;2022-10-16T16:18:38;2.33;;;1.10;;
21886;SDS011;11108;49.988;8.182;2022-10-16T16:21:04;1.30;;;1.20;;
21886;SDS011;11108;49.988;8.182;2022-10-16T16:23:30;3.17;;;1.30;;
21886;SDS011;11108;49.988;8.182;2022-10-16T16:26:15;1.40;;;1.30;;
21886;SDS011;11108;49.988;8.182;2022-10-16T16:28:41;3.93;;;1.40;;
21886;SDS011;11108;49.988;8.182;2022-10-16T16:31:07;1.30;;;1.20;;